createdAt,value
2022-11-05T00:00:35.034Z,7.53
2022-11-05T00:03:20.690Z,8.18
2022-11-05T00:06:08.027Z,7.75
2022-11-05T00:08:53.322Z,7.18
2022-11-05T00:11:40.040Z,8.40
2022-11-05T00:14:25.256Z,7.60
2022-11-05T00:16:51.903Z,9.52
2022-11-05T00:19:18.581Z,9.30
2022-11-05T00:22:03.827Z,7.50
2022-11-05T00:24:49.296Z,10.27
2022-11-05T00:27:15.947Z,13.93
2022-11-05T00:29:42.603Z,9.93
2022-11-05T00:32:09.311Z,11.40
2022-11-05T00:34:36.118Z,12.77
2022-11-05T00:37:02.771Z,12.67
2022-11-05T00:39:29.927Z,13.07
2022-11-05T00:42:14.939Z,12.90
2022-11-05T00:45:00.235Z,11.05
2022-11-05T00:47:45.583Z,13.52
2022-11-05T00:50:12.633Z,10.17
2022-11-05T00:52:59.594Z,8.68
2022-11-05T00:55:33.391Z,13.07
2022-11-05T00:58:01.998Z,15.43
2022-11-05T01:00:31.413Z,9.82
2022-11-05T01:03:02.851Z,11.50
2022-11-05T01:05:31.094Z,13.20
2022-11-05T01:07:58.193Z,9.70
2022-11-05T01:10:25.475Z,13.00
2022-11-05T01:12:52.964Z,13.00
2022-11-05T01:15:20.416Z,9.43
2022-11-05T01:17:47.566Z,10.02
2022-11-05T01:20:14.724Z,13.45
2022-11-05T01:22:41.450Z,9.95
2022-11-05T01:25:08.856Z,14.23
2022-11-05T01:27:37.442Z,13.83
2022-11-05T01:30:06.563Z,11.20
2022-11-05T01:32:35.206Z,9.77
2022-11-05T01:35:02.544Z,11.07
2022-11-05T01:37:29.259Z,15.77
2022-11-05T01:39:55.903Z,11.70
2022-11-05T01:42:25.660Z,8.88
2022-11-05T01:44:54.352Z,11.65
2022-11-05T01:47:33.682Z,9.05
2022-11-05T01:50:05.494Z,10.80
2022-11-05T01:52:34.340Z,9.80
2022-11-05T01:55:02.892Z,12.38
2022-11-05T01:57:30.946Z,11.35
2022-11-05T01:59:59.821Z,12.02
2022-11-05T02:02:27.009Z,10.27
2022-11-05T02:04:59.977Z,11.77
2022-11-05T02:07:27.649Z,11.32
2022-11-05T02:10:08.825Z,11.15
2022-11-05T02:12:39.209Z,11.75
2022-11-05T02:15:06.986Z,11.10
2022-11-05T02:17:39.539Z,10.37
2022-11-05T02:20:48.006Z,13.55
2022-11-05T02:23:51.566Z,15.65
2022-11-05T02:26:55.310Z,11.90
2022-11-05T02:29:49.184Z,11.75
2022-11-05T02:32:29.647Z,11.70
2022-11-05T02:35:16.779Z,13.98
2022-11-05T02:37:53.664Z,10.32
2022-11-05T02:40:36.287Z,7.53
2022-11-05T02:43:32.294Z,10.75
2022-11-05T02:46:02.770Z,11.80
2022-11-05T02:48:47.413Z,10.02
2022-11-05T02:51:44.031Z,10.43
2022-11-05T02:54:24.650Z,9.02
2022-11-05T02:56:53.891Z,9.43
2022-11-05T02:59:20.568Z,13.07
2022-11-05T03:01:48.533Z,14.57
2022-11-05T03:04:19.319Z,14.93
2022-11-05T03:07:04.289Z,20.33
2022-11-05T03:09:56.811Z,17.30
2022-11-05T03:12:29.290Z,13.23
2022-11-05T03:15:33.652Z,13.10
2022-11-05T03:18:35.838Z,13.70
2022-11-05T03:21:11.991Z,14.43
2022-11-05T03:23:53.200Z,11.20
2022-11-05T03:26:33.693Z,9.23
2022-11-05T03:29:06.619Z,12.18
2022-11-05T03:31:36.277Z,10.95
2022-11-05T03:34:05.434Z,12.63
2022-11-05T03:36:39.621Z,9.95
2022-11-05T03:39:10.838Z,14.33
2022-11-05T03:41:43.206Z,10.63
2022-11-05T03:44:13.149Z,9.15
2022-11-05T03:46:45.184Z,8.75
2022-11-05T03:49:17.623Z,6.85
2022-11-05T03:52:07.439Z,3.97
2022-11-05T03:54:36.636Z,6.65
2022-11-05T03:57:14.318Z,6.72
2022-11-05T03:59:46.436Z,4.68
2022-11-05T04:02:15.501Z,7.07
2022-11-05T04:04:42.672Z,9.40
2022-11-05T04:07:29.395Z,5.32
2022-11-05T04:10:15.896Z,7.05
2022-11-05T04:13:01.353Z,5.45
2022-11-05T04:15:29.719Z,6.82
2022-11-05T04:17:58.966Z,6.20
2022-11-05T04:20:44.562Z,5.75
2022-11-05T04:23:30.078Z,7.82
2022-11-05T04:25:56.787Z,9.50
2022-11-05T04:28:43.663Z,6.30
2022-11-05T04:31:10.311Z,7.17
2022-11-05T04:33:36.960Z,4.45
2022-11-05T04:36:03.804Z,4.55
2022-11-05T04:38:30.519Z,5.85
2022-11-05T04:41:13.214Z,5.88
2022-11-05T04:43:39.906Z,5.40
2022-11-05T04:46:06.642Z,7.28
2022-11-05T04:48:33.318Z,6.72
2022-11-05T04:51:00.123Z,7.78
2022-11-05T04:53:26.801Z,5.20
2022-11-05T04:55:53.513Z,5.83
2022-11-05T04:58:21.480Z,7.63
2022-11-05T05:00:49.766Z,5.88
2022-11-05T05:03:16.559Z,5.30
2022-11-05T05:05:43.218Z,7.35
2022-11-05T05:08:09.969Z,6.40
2022-11-05T05:10:36.791Z,7.50
2022-11-05T05:13:03.474Z,6.22
2022-11-05T05:15:30.635Z,5.90
2022-11-05T05:17:58.417Z,5.43
2022-11-05T05:20:43.690Z,5.77
2022-11-05T05:23:11.066Z,7.00
2022-11-05T05:25:37.917Z,6.70
2022-11-05T05:28:04.696Z,5.55
2022-11-05T05:30:31.356Z,5.40
2022-11-05T05:33:02.784Z,6.40
2022-11-05T05:35:29.675Z,6.63
2022-11-05T05:37:56.704Z,5.10
2022-11-05T05:40:24.418Z,5.03
2022-11-05T05:42:57.263Z,6.13
2022-11-05T05:45:23.926Z,6.27
2022-11-05T05:47:50.585Z,6.28
2022-11-05T05:50:17.262Z,5.13
2022-11-05T05:52:43.930Z,4.82
2022-11-05T05:55:12.591Z,7.38
2022-11-05T05:57:39.376Z,5.13
2022-11-05T06:00:06.775Z,5.45
2022-11-05T06:02:33.511Z,4.95
2022-11-05T06:05:00.256Z,6.45
2022-11-05T06:07:27.002Z,5.88
2022-11-05T06:09:53.641Z,6.50
2022-11-05T06:12:20.324Z,4.00
2022-11-05T06:14:46.985Z,5.57
2022-11-05T06:17:13.644Z,4.65
2022-11-05T06:19:40.299Z,4.57
2022-11-05T06:22:06.947Z,5.50
2022-11-05T06:24:33.586Z,5.93
2022-11-05T06:27:00.241Z,7.20
2022-11-05T06:29:26.983Z,6.57
2022-11-05T06:31:54.076Z,6.40
2022-11-05T06:34:20.754Z,8.90
2022-11-05T06:36:47.456Z,8.50
2022-11-05T06:39:14.176Z,8.43
2022-11-05T06:42:03.827Z,10.00
2022-11-05T06:44:28.026Z,12.02
2022-11-05T06:46:54.914Z,12.77
2022-11-05T06:49:24.740Z,11.20
2022-11-05T06:51:54.452Z,13.07
2022-11-05T06:54:21.200Z,15.85
2022-11-05T06:56:47.835Z,13.18
2022-11-05T06:59:14.801Z,16.37
2022-11-05T07:01:41.622Z,11.82
2022-11-05T07:04:08.368Z,14.43
2022-11-05T07:06:37.169Z,20.52
2022-11-05T07:09:04.574Z,17.70
2022-11-05T07:11:31.304Z,18.33
2022-11-05T07:13:58.007Z,18.48
2022-11-05T07:16:25.741Z,19.48
2022-11-05T07:18:52.882Z,18.10
2022-11-05T07:21:19.812Z,18.23
2022-11-05T07:23:46.585Z,16.23
2022-11-05T07:26:13.267Z,18.30
2022-11-05T07:28:39.955Z,17.50
2022-11-05T07:31:06.728Z,21.70
2022-11-05T07:33:36.468Z,18.92
2022-11-05T07:36:03.633Z,18.63
2022-11-05T07:38:30.696Z,17.33
2022-11-05T07:41:00.205Z,20.35
2022-11-05T07:43:26.903Z,18.73
2022-11-05T07:45:53.699Z,17.55
2022-11-05T07:48:20.378Z,18.10
2022-11-05T07:50:50.530Z,18.65
2022-11-05T07:53:17.189Z,17.83
2022-11-05T07:55:50.332Z,18.27
2022-11-05T07:58:17.070Z,20.88
2022-11-05T08:00:43.953Z,21.70
2022-11-05T08:03:14.620Z,17.52
2022-11-05T08:05:44.677Z,17.77
2022-11-05T08:08:13.299Z,16.05
2022-11-05T08:10:40.898Z,15.95
2022-11-05T08:13:09.289Z,19.37
2022-11-05T08:15:36.646Z,19.83
2022-11-05T08:18:09.970Z,17.92
2022-11-05T08:20:38.421Z,18.55
2022-11-05T08:23:05.651Z,15.25
2022-11-05T08:25:32.580Z,16.33
2022-11-05T08:28:04.391Z,15.95
2022-11-05T08:30:32.152Z,14.63
2022-11-05T08:33:04.308Z,16.35
2022-11-05T08:35:31.691Z,10.73
2022-11-05T08:38:01.067Z,14.37
2022-11-05T08:40:28.772Z,13.07
2022-11-05T08:43:00.175Z,13.60
2022-11-05T08:45:27.673Z,13.85
2022-11-05T08:48:00.974Z,13.48
2022-11-05T08:50:28.497Z,12.17
2022-11-05T08:52:55.208Z,11.75
2022-11-05T08:55:22.195Z,12.02
2022-11-05T08:58:05.635Z,14.27
2022-11-05T09:00:35.403Z,11.60
2022-11-05T09:03:04.622Z,12.70
2022-11-05T09:05:37.657Z,13.15
2022-11-05T09:08:09.187Z,10.40
2022-11-05T09:10:36.119Z,11.35
2022-11-05T09:13:04.302Z,9.75
2022-11-05T09:15:31.691Z,12.33
2022-11-05T09:17:58.461Z,10.68
2022-11-05T09:20:25.606Z,8.48
2022-11-05T09:22:52.684Z,8.93
2022-11-05T09:25:19.467Z,10.35
2022-11-05T09:27:46.235Z,8.63
2022-11-05T09:30:14.151Z,8.85
2022-11-05T09:32:41.401Z,10.65
2022-11-05T09:35:09.079Z,8.93
2022-11-05T09:37:39.234Z,8.73
2022-11-05T09:40:06.759Z,6.97
2022-11-05T09:42:42.029Z,8.05
2022-11-05T09:45:17.167Z,7.25
2022-11-05T09:48:08.715Z,10.30
2022-11-05T09:50:40.547Z,5.88
2022-11-05T09:53:07.873Z,7.27
2022-11-05T09:55:41.557Z,6.00
2022-11-05T09:58:28.357Z,9.05
2022-11-05T10:00:56.753Z,6.80
2022-11-05T10:03:25.087Z,6.25
2022-11-05T10:05:53.771Z,6.13
2022-11-05T10:08:26.460Z,4.55
2022-11-05T10:11:02.516Z,7.30
2022-11-05T10:13:33.299Z,5.57
2022-11-05T10:16:07.201Z,5.10
2022-11-05T10:18:40.677Z,8.53
2022-11-05T10:21:11.277Z,6.85
2022-11-05T10:23:37.935Z,5.97
2022-11-05T10:26:12.546Z,4.38
2022-11-05T10:28:39.704Z,3.78
2022-11-05T10:31:09.599Z,4.73
2022-11-05T10:33:43.769Z,5.65
2022-11-05T10:36:17.244Z,6.32
2022-11-05T10:38:44.170Z,5.95
2022-11-05T10:41:44.032Z,7.25
2022-11-05T10:44:48.865Z,7.80
2022-11-05T10:47:34.154Z,7.95
2022-11-05T10:50:04.319Z,6.28
2022-11-05T10:52:38.380Z,8.18
2022-11-05T10:55:16.171Z,6.55
2022-11-05T10:57:43.449Z,6.33
2022-11-05T11:00:28.360Z,7.15
2022-11-05T11:02:58.219Z,6.78
2022-11-05T11:05:25.002Z,6.05
2022-11-05T11:07:57.132Z,7.95
2022-11-05T11:10:25.647Z,7.47
2022-11-05T11:12:53.175Z,7.20
2022-11-05T11:15:37.152Z,9.85
2022-11-05T11:18:27.557Z,9.07
2022-11-05T11:21:02.115Z,5.50
2022-11-05T11:23:39.109Z,5.10
2022-11-05T11:26:07.706Z,7.55
2022-11-05T11:28:41.041Z,10.30
2022-11-05T11:31:23.060Z,6.65
2022-11-05T11:33:56.223Z,6.20
2022-11-05T11:36:27.038Z,8.27
2022-11-05T11:39:00.250Z,4.88
2022-11-05T11:41:35.989Z,8.63
2022-11-05T11:44:27.190Z,6.07
2022-11-05T11:46:57.247Z,11.07
2022-11-05T11:49:42.336Z,8.50
2022-11-05T11:52:28.139Z,6.68
2022-11-05T11:55:18.133Z,7.75
2022-11-05T11:57:54.035Z,6.80
2022-11-05T12:00:24.110Z,5.15
2022-11-05T12:03:28.303Z,5.17
2022-11-05T12:06:13.844Z,6.40
2022-11-05T12:09:07.216Z,6.43
2022-11-05T12:12:11.622Z,5.25
2022-11-05T12:14:57.826Z,6.00
2022-11-05T12:17:50.426Z,6.73
2022-11-05T12:20:27.076Z,6.60
2022-11-05T12:23:23.919Z,4.82
2022-11-05T12:26:17.015Z,6.05
2022-11-05T12:29:18.309Z,7.97
2022-11-05T12:32:02.365Z,6.90
2022-11-05T12:34:46.837Z,6.13
2022-11-05T12:37:32.151Z,6.28
2022-11-05T12:40:20.469Z,5.60
2022-11-05T12:42:53.922Z,2.72
2022-11-05T12:45:39.322Z,6.07
2022-11-05T12:48:38.675Z,6.38
2022-11-05T12:51:21.273Z,5.32
2022-11-05T12:53:53.133Z,5.45
2022-11-05T12:56:25.978Z,7.30
2022-11-05T12:59:04.548Z,8.00
2022-11-05T13:01:39.769Z,7.75
2022-11-05T13:04:34.797Z,8.02
2022-11-05T13:07:05.540Z,5.70
2022-11-05T13:09:41.391Z,7.22
2022-11-05T13:12:14.839Z,6.63
2022-11-05T13:14:50.501Z,5.63
2022-11-05T13:17:28.143Z,5.15
2022-11-05T13:20:19.141Z,6.60
2022-11-05T13:23:10.916Z,6.68
2022-11-05T13:25:44.957Z,7.33
2022-11-05T13:28:46.880Z,5.82
2022-11-05T13:31:21.710Z,6.40
2022-11-05T13:33:51.028Z,6.38
2022-11-05T13:36:49.101Z,5.85
2022-11-05T13:39:22.587Z,6.47
2022-11-05T13:42:26.952Z,6.35
2022-11-05T13:45:18.589Z,8.18
2022-11-05T13:48:00.500Z,5.40
2022-11-05T13:50:53.840Z,6.07
2022-11-05T13:53:58.065Z,6.67
2022-11-05T13:56:50.619Z,4.35
2022-11-05T13:59:43.855Z,7.20
2022-11-05T14:02:24.835Z,7.18
2022-11-05T14:05:00.979Z,5.72
2022-11-05T14:07:32.556Z,5.40
2022-11-05T14:10:10.630Z,7.95
2022-11-05T14:12:40.282Z,5.95
2022-11-05T14:15:14.783Z,5.68
2022-11-05T14:18:06.071Z,6.43
2022-11-05T14:20:32.787Z,6.50
2022-11-05T14:23:17.908Z,7.45
2022-11-05T14:25:44.632Z,5.28
2022-11-05T14:28:36.453Z,8.65
2022-11-05T14:31:41.164Z,6.25
2022-11-05T14:34:11.077Z,5.70
2022-11-05T14:36:42.107Z,5.07
2022-11-05T14:39:38.685Z,7.53
2022-11-05T14:42:15.534Z,7.00
2022-11-05T14:45:19.354Z,5.65
2022-11-05T14:48:04.555Z,6.47
2022-11-05T14:50:34.084Z,8.70
2022-11-05T14:53:12.563Z,6.03
2022-11-05T14:55:42.899Z,5.28
2022-11-05T14:58:30.194Z,5.28
2022-11-05T15:00:58.095Z,7.10
2022-11-05T15:03:47.155Z,8.30
2022-11-05T15:06:25.238Z,4.72
2022-11-05T15:08:55.064Z,6.72
2022-11-05T15:11:33.358Z,11.07
2022-11-05T15:14:19.778Z,5.97
2022-11-05T15:16:54.295Z,8.98
2022-11-05T15:19:32.289Z,6.53
2022-11-05T15:22:05.827Z,4.50
2022-11-05T15:24:34.148Z,7.57
2022-11-05T15:27:07.123Z,7.20
2022-11-05T15:29:34.212Z,10.48
2022-11-05T15:32:01.170Z,5.60
2022-11-05T15:34:33.390Z,8.15
2022-11-05T15:37:03.025Z,7.57
2022-11-05T15:39:41.838Z,6.50
2022-11-05T15:42:26.081Z,8.90
2022-11-05T15:44:57.997Z,6.68
2022-11-05T15:47:26.954Z,6.88
2022-11-05T15:49:59.485Z,7.32
2022-11-05T15:52:34.865Z,8.30
2022-11-05T15:55:20.458Z,8.65
2022-11-05T15:58:06.529Z,8.02
2022-11-05T16:00:36.418Z,6.43
2022-11-05T16:03:07.041Z,9.57
2022-11-05T16:05:36.064Z,9.10
2022-11-05T16:08:06.117Z,8.00
2022-11-05T16:10:38.586Z,11.05
2022-11-05T16:13:32.990Z,8.23
2022-11-05T16:16:06.071Z,9.98
2022-11-05T16:18:40.036Z,9.73
2022-11-05T16:21:18.537Z,7.32
2022-11-05T16:23:48.355Z,11.05
2022-11-05T16:29:47.533Z,7.38
2022-11-05T16:32:28.556Z,10.27
2022-11-05T16:35:03.742Z,7.05
2022-11-05T16:37:37.631Z,9.20
2022-11-05T16:40:16.802Z,9.02
2022-11-05T16:42:44.168Z,8.60
2022-11-05T16:45:13.892Z,11.10
2022-11-05T16:47:42.091Z,9.20
2022-11-05T16:50:31.907Z,9.15
2022-11-05T16:52:58.657Z,9.57
2022-11-05T16:55:25.353Z,10.65
2022-11-05T16:57:54.489Z,10.17
2022-11-05T17:00:22.406Z,10.10
2022-11-05T17:02:50.150Z,8.70
2022-11-05T17:05:31.292Z,9.98
2022-11-05T17:07:58.152Z,10.77
2022-11-05T17:10:26.118Z,14.20
2022-11-05T17:12:53.471Z,12.13
2022-11-05T17:15:26.963Z,8.73
2022-11-05T17:17:55.002Z,10.95
2022-11-05T17:20:39.878Z,13.88
2022-11-05T17:23:16.229Z,12.13
2022-11-05T17:25:45.759Z,9.45
2022-11-05T17:28:13.042Z,11.02
2022-11-05T17:30:41.943Z,11.77
2022-11-05T17:33:11.493Z,11.55
2022-11-05T17:35:42.292Z,8.97
2022-11-05T17:38:10.487Z,12.80
2022-11-05T17:40:37.881Z,9.98
2022-11-05T17:43:05.179Z,12.05
2022-11-05T17:45:32.234Z,10.45
2022-11-05T17:47:58.979Z,10.43
2022-11-05T17:50:25.627Z,10.38
2022-11-05T17:52:52.334Z,10.73
2022-11-05T17:55:19.088Z,10.80
2022-11-05T17:57:50.818Z,9.98
2022-11-05T18:00:20.730Z,14.80
2022-11-05T18:02:49.541Z,11.18
2022-11-05T18:05:18.288Z,10.77
2022-11-05T18:07:45.960Z,11.02
2022-11-05T18:10:13.100Z,10.57
2022-11-05T18:12:40.235Z,11.03
2022-11-05T18:15:08.334Z,9.38
2022-11-05T18:17:35.223Z,9.00
2022-11-05T18:20:02.127Z,12.07
2022-11-05T18:22:29.581Z,8.65
2022-11-05T18:24:56.268Z,11.20
2022-11-05T18:27:27.441Z,10.43
2022-11-05T18:29:54.800Z,10.30
2022-11-05T18:32:21.690Z,11.48
2022-11-05T18:34:48.339Z,11.85
2022-11-05T18:37:15.485Z,10.63
2022-11-05T18:39:42.214Z,10.93
2022-11-05T18:42:09.007Z,9.10
2022-11-05T18:44:39.674Z,14.48
2022-11-05T18:47:06.993Z,9.30
2022-11-05T18:49:34.297Z,8.23
2022-11-05T18:52:00.966Z,12.20
2022-11-05T18:54:27.905Z,12.77
2022-11-05T18:56:54.558Z,10.55
2022-11-05T18:59:36.706Z,12.38
2022-11-05T19:02:05.190Z,11.60
2022-11-05T19:04:32.000Z,10.85
2022-11-05T19:07:03.294Z,7.72
2022-11-05T19:09:31.523Z,11.90
2022-11-05T19:11:58.478Z,12.90
2022-11-05T19:14:25.211Z,9.60
2022-11-05T19:16:51.876Z,10.40
2022-11-05T19:19:19.029Z,9.63
2022-11-05T19:21:45.997Z,11.40
2022-11-05T19:24:20.351Z,10.43
2022-11-05T19:26:49.355Z,8.07
2022-11-05T19:29:16.391Z,10.57
2022-11-05T19:31:43.729Z,9.13
2022-11-05T19:34:10.454Z,8.88
2022-11-05T19:36:37.146Z,7.47
2022-11-05T19:39:08.973Z,8.90
2022-11-05T19:41:35.927Z,9.55
2022-11-05T19:44:03.701Z,9.38
2022-11-05T19:46:34.177Z,8.43
2022-11-05T19:49:03.000Z,7.75
2022-11-05T19:51:31.622Z,6.57
2022-11-05T19:54:00.496Z,7.82
2022-11-05T19:56:30.319Z,6.78
2022-11-05T19:58:58.915Z,8.30
2022-11-05T20:01:28.930Z,8.80
2022-11-05T20:03:57.449Z,9.93
2022-11-05T20:06:31.957Z,9.52
2022-11-05T20:11:49.903Z,10.32
2022-11-05T20:14:16.654Z,10.57
2022-11-05T20:16:45.354Z,13.13
2022-11-05T20:19:15.863Z,11.00
2022-11-05T20:21:42.504Z,9.05
2022-11-05T20:24:11.778Z,9.00
2022-11-05T20:26:39.058Z,11.98
2022-11-05T20:29:06.281Z,8.17
2022-11-05T20:31:32.975Z,13.10
2022-11-05T20:33:59.978Z,11.05
2022-11-05T20:36:27.287Z,9.30
2022-11-05T20:38:57.972Z,10.15
2022-11-05T20:41:25.819Z,10.77
2022-11-05T20:43:54.359Z,8.38
2022-11-05T20:46:22.647Z,11.85
2022-11-05T20:48:49.769Z,11.43
2022-11-05T20:51:19.047Z,8.32
2022-11-05T20:53:49.080Z,12.07
2022-11-05T20:56:21.664Z,12.10
2022-11-05T20:58:48.963Z,9.73
2022-11-05T21:01:16.656Z,10.02
2022-11-05T21:03:45.035Z,9.98
2022-11-05T21:06:13.184Z,9.63
2022-11-05T21:08:40.442Z,8.88
2022-11-05T21:11:07.498Z,8.52
2022-11-05T21:13:34.422Z,8.68
2022-11-05T21:16:01.609Z,8.90
2022-11-05T21:18:31.183Z,9.03
2022-11-05T21:21:00.363Z,9.70
2022-11-05T21:23:28.690Z,14.20
2022-11-05T21:25:55.797Z,8.88
2022-11-05T21:28:22.820Z,10.65
2022-11-05T21:30:49.541Z,10.00
2022-11-05T21:33:18.755Z,9.57
2022-11-05T21:35:47.899Z,8.25
2022-11-05T21:38:16.785Z,10.05
2022-11-05T21:40:44.556Z,10.57
2022-11-05T21:43:11.957Z,9.60
2022-11-05T21:45:44.068Z,9.38
2022-11-05T21:48:11.874Z,12.35
2022-11-05T21:50:57.750Z,13.25
2022-11-05T21:53:43.750Z,12.18
2022-11-05T21:56:47.408Z,11.27
2022-11-05T21:59:37.001Z,9.82
2022-11-05T22:02:04.491Z,8.80
2022-11-05T22:04:34.050Z,8.88
2022-11-05T22:07:01.173Z,11.30
2022-11-05T22:09:28.744Z,9.97
2022-11-05T22:11:57.748Z,12.32
2022-11-05T22:14:24.927Z,10.35
2022-11-05T22:16:51.815Z,8.95
2022-11-05T22:19:19.123Z,9.52
2022-11-05T22:21:46.052Z,7.70
2022-11-05T22:24:13.015Z,8.23
2022-11-05T22:26:40.357Z,9.27
2022-11-05T22:29:08.196Z,9.95
2022-11-05T22:31:36.680Z,9.10
2022-11-05T22:34:05.036Z,11.47
2022-11-05T22:36:32.885Z,8.38
2022-11-05T22:38:59.704Z,7.57
2022-11-05T22:41:26.454Z,14.32
2022-11-05T22:43:53.168Z,11.70
2022-11-05T22:46:22.321Z,9.57
2022-11-05T22:48:49.776Z,8.98
2022-11-05T22:51:22.885Z,9.40
2022-11-05T22:53:49.996Z,10.05
2022-11-05T22:56:21.540Z,9.57
2022-11-05T22:58:49.403Z,11.67
2022-11-05T23:01:17.622Z,9.20
2022-11-05T23:03:46.271Z,10.82
2022-11-05T23:06:31.689Z,12.00
2022-11-05T23:09:18.128Z,12.40
2022-11-05T23:11:48.943Z,11.23
2022-11-05T23:14:15.993Z,11.00
2022-11-05T23:17:01.711Z,13.57
2022-11-05T23:19:47.712Z,10.10
2022-11-05T23:22:40.046Z,8.10
2022-11-05T23:25:09.210Z,10.47
2022-11-05T23:27:38.993Z,7.90
2022-11-05T23:30:09.815Z,8.20
2022-11-05T23:32:37.028Z,7.35
2022-11-05T23:35:05.203Z,9.07
2022-11-05T23:37:51.099Z,12.73
2022-11-05T23:40:25.398Z,7.80
2022-11-05T23:43:11.097Z,9.45
2022-11-05T23:45:55.156Z,8.15
2022-11-05T23:48:32.313Z,10.07
2022-11-05T23:51:02.172Z,7.67
2022-11-05T23:53:30.871Z,12.80
2022-11-05T23:56:05.229Z,8.65
2022-11-05T23:58:32.293Z,10.93
